createdAt,value
2023-04-10T00:00:57.751Z,21.05
2023-04-10T00:03:27.822Z,20.40
2023-04-10T00:05:58.067Z,21.08
2023-04-10T00:08:28.622Z,20.48
2023-04-10T00:10:57.889Z,21.05
2023-04-10T00:13:26.517Z,20.73
2023-04-10T00:15:58.119Z,19.85
2023-04-10T00:18:32.655Z,19.85
2023-04-10T00:21:03.351Z,20.23
2023-04-10T00:23:35.600Z,19.25
2023-04-10T00:26:06.323Z,19.50
2023-04-10T00:28:38.192Z,18.58
2023-04-10T00:31:09.992Z,20.02
2023-04-10T00:33:39.102Z,19.73
2023-04-10T00:36:08.581Z,20.23
2023-04-10T00:38:39.041Z,20.27
2023-04-10T00:41:09.168Z,18.75
2023-04-10T00:43:40.659Z,19.10
2023-04-10T00:46:12.422Z,19.98
2023-04-10T00:48:42.030Z,18.88
2023-04-10T00:51:11.357Z,19.08
2023-04-10T00:53:41.072Z,19.35
2023-04-10T00:56:11.625Z,19.30
2023-04-10T00:58:41.421Z,19.55
2023-04-10T01:01:12.293Z,19.90
2023-04-10T01:03:43.661Z,19.73
2023-04-10T01:06:28.524Z,19.77
2023-04-10T01:09:06.437Z,18.25
2023-04-10T01:11:50.095Z,18.42
2023-04-10T01:14:32.465Z,18.30
2023-04-10T01:17:15.505Z,18.20
2023-04-10T01:20:14.624Z,19.38
2023-04-10T01:23:37.037Z,17.15
2023-04-10T01:26:09.144Z,18.17
2023-04-10T01:29:05.704Z,18.05
2023-04-10T01:31:43.126Z,18.73
2023-04-10T01:34:18.839Z,17.60
2023-04-10T01:36:56.210Z,17.00
2023-04-10T01:39:28.444Z,17.65
2023-04-10T01:42:00.846Z,17.63
2023-04-10T01:44:36.181Z,17.33
2023-04-10T01:49:43.881Z,16.63
2023-04-10T01:52:14.538Z,16.88
2023-04-10T01:54:51.065Z,16.60
2023-04-10T01:57:22.030Z,15.93
2023-04-10T01:59:53.621Z,15.35
2023-04-10T02:02:23.974Z,16.13
2023-04-10T02:04:55.626Z,16.10
2023-04-10T02:07:37.031Z,15.93
2023-04-10T02:10:15.153Z,15.40
2023-04-10T02:12:54.250Z,15.80
2023-04-10T02:15:34.385Z,14.55
2023-04-10T02:18:08.320Z,14.75
2023-04-10T02:20:38.461Z,14.73
2023-04-10T02:23:08.652Z,13.30
2023-04-10T02:25:38.149Z,13.82
2023-04-10T02:28:08.107Z,14.40
2023-04-10T02:30:39.462Z,12.88
2023-04-10T02:33:09.575Z,14.75
2023-04-10T02:35:41.669Z,13.98
2023-04-10T02:38:15.621Z,13.68
2023-04-10T02:40:46.231Z,13.73
2023-04-10T02:43:15.876Z,13.18
2023-04-10T02:45:48.016Z,12.60
2023-04-10T02:48:16.458Z,12.57
2023-04-10T02:50:47.937Z,13.20
2023-04-10T02:53:20.127Z,12.88
2023-04-10T02:55:48.991Z,12.63
2023-04-10T02:58:17.778Z,12.77
2023-04-10T03:00:53.695Z,12.52
2023-04-10T03:03:22.800Z,12.23
2023-04-10T03:05:53.494Z,12.25
2023-04-10T03:08:24.513Z,11.80
2023-04-10T03:10:54.690Z,11.82
2023-04-10T03:13:28.183Z,11.30
2023-04-10T03:16:00.307Z,11.63
2023-04-10T03:18:30.230Z,11.48
2023-04-10T03:20:59.437Z,11.38
2023-04-10T03:23:28.531Z,11.40
2023-04-10T03:25:58.114Z,11.38
2023-04-10T03:28:27.874Z,10.93
2023-04-10T03:30:58.580Z,10.43
2023-04-10T03:33:27.869Z,10.30
2023-04-10T03:35:57.424Z,10.25
2023-04-10T03:38:27.584Z,10.77
2023-04-10T03:40:57.797Z,10.15
2023-04-10T03:43:27.526Z,10.32
2023-04-10T03:45:59.711Z,10.65
2023-04-10T03:48:32.570Z,8.90
2023-04-10T03:51:02.324Z,9.52
2023-04-10T03:53:36.175Z,10.30
2023-04-10T03:56:05.587Z,9.75
2023-04-10T03:58:34.344Z,9.05
2023-04-10T04:01:06.174Z,9.60
2023-04-10T04:03:34.925Z,9.93
2023-04-10T04:06:04.173Z,9.30
2023-04-10T04:08:36.401Z,9.73
2023-04-10T04:11:06.066Z,9.30
2023-04-10T04:13:35.097Z,9.80
2023-04-10T04:16:06.337Z,9.60
2023-04-10T04:18:34.775Z,9.63
2023-04-10T04:21:09.575Z,10.15
2023-04-10T04:23:39.614Z,9.90
2023-04-10T04:26:10.278Z,9.40
2023-04-10T04:28:39.724Z,9.65
2023-04-10T04:31:10.111Z,10.43
2023-04-10T04:33:39.616Z,9.65
2023-04-10T04:36:10.459Z,11.30
2023-04-10T04:38:40.390Z,10.85
2023-04-10T04:41:09.580Z,10.45
2023-04-10T04:43:39.779Z,9.48
2023-04-10T04:46:12.488Z,10.05
2023-04-10T04:48:44.562Z,10.07
2023-04-10T04:51:19.525Z,10.35
2023-04-10T04:53:49.088Z,11.57
2023-04-10T04:56:18.917Z,10.20
2023-04-10T04:58:48.801Z,9.98
2023-04-10T05:01:21.293Z,10.32
2023-04-10T05:03:50.094Z,9.65
2023-04-10T05:06:22.225Z,10.88
2023-04-10T05:08:54.445Z,10.60
2023-04-10T05:11:26.145Z,10.52
2023-04-10T05:13:55.655Z,10.07
2023-04-10T05:16:27.937Z,10.50
2023-04-10T05:18:58.164Z,11.38
2023-04-10T05:21:27.542Z,10.77
2023-04-10T05:23:56.489Z,10.60
2023-04-10T05:26:25.199Z,11.73
2023-04-10T05:28:55.856Z,11.77
2023-04-10T05:31:26.702Z,10.77
2023-04-10T05:33:58.826Z,11.07
2023-04-10T05:36:27.947Z,11.65
2023-04-10T05:38:56.970Z,11.27
2023-04-10T05:41:26.512Z,11.75
2023-04-10T05:43:56.757Z,11.95
2023-04-10T05:46:27.519Z,12.30
2023-04-10T05:48:57.942Z,12.13
2023-04-10T05:51:28.231Z,11.60
2023-04-10T05:53:57.456Z,11.77
2023-04-10T05:56:33.099Z,11.65
2023-04-10T05:59:06.748Z,11.00
2023-04-10T06:01:37.462Z,11.75
2023-04-10T06:04:08.292Z,11.82
2023-04-10T06:06:37.414Z,11.93
2023-04-10T06:09:06.564Z,11.07
2023-04-10T06:11:35.811Z,11.57
2023-04-10T06:14:05.973Z,11.02
2023-04-10T06:16:37.542Z,11.80
2023-04-10T06:19:06.616Z,11.02
2023-04-10T06:21:39.261Z,10.85
2023-04-10T06:24:08.670Z,10.85
2023-04-10T06:26:40.302Z,10.80
2023-04-10T06:29:09.120Z,11.02
2023-04-10T06:31:39.566Z,10.73
2023-04-10T06:34:10.404Z,11.02
2023-04-10T06:36:39.797Z,11.07
2023-04-10T06:39:08.853Z,10.50
2023-04-10T06:41:38.194Z,10.85
2023-04-10T06:44:10.947Z,10.15
2023-04-10T06:46:41.508Z,10.50
2023-04-10T06:49:10.657Z,10.10
2023-04-10T06:51:39.256Z,10.93
2023-04-10T06:54:11.727Z,10.77
2023-04-10T06:56:40.817Z,10.52
2023-04-10T06:59:11.209Z,9.82
2023-04-10T07:01:43.132Z,9.75
2023-04-10T07:04:12.167Z,10.65
2023-04-10T07:06:40.977Z,10.23
2023-04-10T07:09:10.528Z,10.30
2023-04-10T07:11:40.673Z,10.40
2023-04-10T07:14:09.593Z,10.32
2023-04-10T07:16:38.421Z,10.27
2023-04-10T07:19:08.709Z,9.63
2023-04-10T07:21:38.666Z,10.02
2023-04-10T07:24:08.257Z,9.43
2023-04-10T07:26:37.534Z,9.63
2023-04-10T07:29:07.179Z,10.63
2023-04-10T07:31:37.206Z,10.20
2023-04-10T07:34:07.908Z,9.25
2023-04-10T07:36:40.367Z,9.65
2023-04-10T07:39:09.282Z,9.35
2023-04-10T07:41:38.892Z,10.35
2023-04-10T07:44:08.265Z,9.80
2023-04-10T07:46:37.918Z,9.50
2023-04-10T07:49:09.124Z,9.60
2023-04-10T07:51:38.414Z,9.27
2023-04-10T07:54:08.890Z,9.88
2023-04-10T07:56:38.634Z,9.20
2023-04-10T07:59:08.107Z,9.27
2023-04-10T08:01:36.805Z,9.35
2023-04-10T08:04:16.146Z,8.57
2023-04-10T08:06:45.796Z,8.93
2023-04-10T08:09:14.781Z,8.50
2023-04-10T08:11:44.598Z,8.98
2023-04-10T08:14:13.948Z,8.70
2023-04-10T08:16:49.606Z,8.85
2023-04-10T08:19:22.413Z,8.60
2023-04-10T08:21:51.736Z,8.23
2023-04-10T08:24:23.467Z,8.50
2023-04-10T08:26:53.284Z,8.65
2023-04-10T08:31:56.618Z,9.55
2023-04-10T08:34:30.996Z,8.77
2023-04-10T08:37:01.665Z,8.40
2023-04-10T08:39:31.143Z,8.32
2023-04-10T08:42:01.789Z,9.07
2023-04-10T08:44:31.816Z,9.30
2023-04-10T08:47:03.632Z,8.70
2023-04-10T08:49:45.986Z,9.23
2023-04-10T08:52:22.768Z,8.20
2023-04-10T08:54:58.747Z,9.10
2023-04-10T08:57:28.038Z,8.88
2023-04-10T08:59:58.506Z,9.35
2023-04-10T09:02:28.381Z,8.98
2023-04-10T09:05:04.601Z,9.20
2023-04-10T09:07:34.279Z,9.15
2023-04-10T09:10:07.093Z,9.13
2023-04-10T09:12:47.500Z,9.02
2023-04-10T09:15:19.824Z,9.30
2023-04-10T09:18:00.885Z,9.07
2023-04-10T09:20:34.791Z,8.88
2023-04-10T09:23:03.272Z,8.50
2023-04-10T09:25:35.794Z,9.80
2023-04-10T09:28:08.889Z,9.95
2023-04-10T09:30:42.182Z,8.88
2023-04-10T09:33:27.693Z,9.55
2023-04-10T09:36:02.509Z,9.88
2023-04-10T09:38:31.433Z,9.35
2023-04-10T09:41:11.255Z,10.40
2023-04-10T09:43:41.001Z,10.30
2023-04-10T09:46:10.144Z,9.95
2023-04-10T09:48:40.135Z,9.77
2023-04-10T09:51:31.216Z,10.10
2023-04-10T09:54:00.696Z,10.80
2023-04-10T09:56:31.735Z,10.05
2023-04-10T09:59:05.751Z,10.55
2023-04-10T10:01:36.316Z,11.02
2023-04-10T10:04:07.430Z,10.50
2023-04-10T10:06:43.523Z,10.60
2023-04-10T10:09:14.249Z,10.90
2023-04-10T10:11:44.136Z,10.13
2023-04-10T10:14:20.411Z,10.02
2023-04-10T10:16:57.692Z,9.63
2023-04-10T10:19:33.177Z,11.05
2023-04-10T10:22:06.317Z,10.27
2023-04-10T10:24:36.727Z,9.52
2023-04-10T10:27:12.785Z,9.75
2023-04-10T10:29:43.382Z,9.50
2023-04-10T10:32:15.824Z,9.95
2023-04-10T10:34:46.448Z,10.02
2023-04-10T10:37:34.165Z,8.82
2023-04-10T10:40:15.741Z,9.45
2023-04-10T10:42:55.749Z,9.63
2023-04-10T10:45:33.422Z,9.15
2023-04-10T10:48:03.531Z,9.05
2023-04-10T10:50:57.398Z,9.30
2023-04-10T10:53:40.592Z,9.10
2023-04-10T10:56:37.827Z,9.27
2023-04-10T10:59:08.802Z,8.45
2023-04-10T11:01:39.593Z,9.10
2023-04-10T11:04:45.852Z,8.38
2023-04-10T11:07:18.088Z,8.13
2023-04-10T11:09:53.408Z,8.43
2023-04-10T11:12:27.319Z,8.48
2023-04-10T11:15:02.078Z,7.95
2023-04-10T11:17:52.504Z,8.13
2023-04-10T11:20:27.387Z,7.03
2023-04-10T11:23:12.785Z,8.27
2023-04-10T11:25:55.838Z,8.63
2023-04-10T11:28:38.608Z,7.68
2023-04-10T11:31:22.089Z,7.28
2023-04-10T11:34:03.594Z,7.68
2023-04-10T11:36:34.720Z,8.23
2023-04-10T11:39:09.179Z,8.02
2023-04-10T11:41:42.559Z,7.90
2023-04-10T11:44:13.320Z,7.03
2023-04-10T11:46:48.141Z,7.53
2023-04-10T11:49:21.451Z,7.47
2023-04-10T11:51:52.862Z,7.32
2023-04-10T11:54:24.332Z,7.70
2023-04-10T11:57:05.090Z,7.57
2023-04-10T11:59:36.010Z,7.45
2023-04-10T12:02:10.817Z,6.85
2023-04-10T12:04:41.603Z,7.30
2023-04-10T12:07:11.654Z,7.00
2023-04-10T12:09:41.603Z,6.65
2023-04-10T12:12:15.416Z,7.18
2023-04-10T12:14:45.042Z,7.30
2023-04-10T12:17:15.150Z,6.22
2023-04-10T12:19:45.650Z,6.75
2023-04-10T12:22:16.754Z,6.35
2023-04-10T12:24:48.358Z,8.25
2023-04-10T12:27:23.995Z,8.73
2023-04-10T12:29:56.388Z,14.48
2023-04-10T12:32:28.069Z,7.15
2023-04-10T12:35:01.762Z,5.82
2023-04-10T12:37:50.059Z,7.22
2023-04-10T12:40:22.786Z,6.15
2023-04-10T12:42:53.697Z,7.00
2023-04-10T12:45:23.800Z,6.07
2023-04-10T12:47:54.637Z,5.57
2023-04-10T12:50:24.210Z,7.03
2023-04-10T12:53:10.043Z,10.00
2023-04-10T12:58:21.549Z,6.22
2023-04-10T13:00:52.411Z,4.88
2023-04-10T13:03:25.245Z,4.78
2023-04-10T13:05:54.974Z,4.65
2023-04-10T13:08:24.383Z,4.78
2023-04-10T13:10:57.039Z,4.25
2023-04-10T13:13:33.131Z,5.32
2023-04-10T13:16:02.979Z,4.40
2023-04-10T13:18:32.623Z,4.78
2023-04-10T13:21:01.260Z,4.40
2023-04-10T13:23:30.766Z,4.18
2023-04-10T13:26:00.116Z,4.18
2023-04-10T13:28:33.185Z,4.43
2023-04-10T13:31:04.080Z,4.35
2023-04-10T13:33:32.991Z,4.57
2023-04-10T13:36:02.045Z,4.45
2023-04-10T13:38:31.209Z,4.55
2023-04-10T13:41:00.018Z,5.13
2023-04-10T13:43:32.059Z,4.90
2023-04-10T13:46:01.871Z,4.57
2023-04-10T13:48:40.037Z,4.55
2023-04-10T13:51:10.245Z,4.72
2023-04-10T13:53:39.617Z,5.15
2023-04-10T13:56:12.031Z,5.45
2023-04-10T13:58:44.342Z,5.07
2023-04-10T14:01:16.288Z,5.03
2023-04-10T14:03:45.458Z,5.55
2023-04-10T14:06:14.801Z,5.93
2023-04-10T14:08:44.841Z,5.85
2023-04-10T14:11:14.049Z,6.10
2023-04-10T14:13:44.570Z,6.22
2023-04-10T14:16:14.296Z,5.43
2023-04-10T14:18:43.342Z,6.55
2023-04-10T14:21:12.858Z,5.50
2023-04-10T14:23:43.610Z,5.60
2023-04-10T14:26:12.375Z,5.97
2023-04-10T14:28:41.569Z,5.47
2023-04-10T14:31:12.545Z,5.78
2023-04-10T14:33:41.709Z,6.10
2023-04-10T14:36:12.400Z,5.90
2023-04-10T14:38:43.420Z,6.38
2023-04-10T14:41:13.406Z,6.90
2023-04-10T14:43:43.576Z,6.20
2023-04-10T14:46:14.342Z,6.55
2023-04-10T14:48:43.119Z,7.15
2023-04-10T14:51:14.093Z,7.57
2023-04-10T14:53:45.954Z,7.38
2023-04-10T14:56:17.124Z,7.50
2023-04-10T14:58:47.310Z,7.88
2023-04-10T15:01:18.935Z,8.80
2023-04-10T15:03:50.385Z,7.70
2023-04-10T15:06:20.117Z,8.18
2023-04-10T15:08:49.333Z,7.82
2023-04-10T15:11:20.226Z,7.68
2023-04-10T15:13:53.629Z,7.95
2023-04-10T15:16:24.442Z,8.45
2023-04-10T15:18:53.969Z,7.35
2023-04-10T15:21:23.780Z,8.15
2023-04-10T15:23:54.973Z,7.20
2023-04-10T15:26:27.618Z,7.72
2023-04-10T15:28:58.756Z,9.00
2023-04-10T15:31:28.977Z,7.45
2023-04-10T15:33:57.968Z,7.50
2023-04-10T15:36:28.005Z,8.07
2023-04-10T15:38:58.507Z,9.45
2023-04-10T15:41:31.798Z,8.40
2023-04-10T15:44:01.449Z,7.97
2023-04-10T15:46:34.494Z,7.88
2023-04-10T15:49:03.716Z,8.32
2023-04-10T15:51:33.635Z,8.50
2023-04-10T15:54:05.398Z,8.68
2023-04-10T15:56:34.609Z,8.25
2023-04-10T15:59:03.457Z,8.55
2023-04-10T16:01:35.382Z,8.18
2023-04-10T16:04:05.925Z,8.80
2023-04-10T16:06:36.159Z,8.57
2023-04-10T16:09:12.359Z,8.80
2023-04-10T16:11:52.309Z,8.15
2023-04-10T16:14:22.603Z,8.82
2023-04-10T16:16:54.684Z,10.10
2023-04-10T16:19:24.611Z,9.18
2023-04-10T16:21:53.590Z,9.63
2023-04-10T16:24:23.094Z,9.32
2023-04-10T16:26:57.198Z,9.77
2023-04-10T16:29:26.475Z,8.55
2023-04-10T16:31:57.025Z,8.45
2023-04-10T16:34:25.982Z,8.77
2023-04-10T16:37:02.993Z,8.55
2023-04-10T16:39:33.021Z,9.50
2023-04-10T16:42:03.564Z,9.63
2023-04-10T16:44:33.521Z,9.75
2023-04-10T16:47:06.423Z,9.90
2023-04-10T16:49:35.211Z,9.63
2023-04-10T16:52:05.824Z,7.82
2023-04-10T16:54:34.828Z,7.72
2023-04-10T16:57:04.079Z,7.60
2023-04-10T16:59:33.970Z,7.60
2023-04-10T17:02:04.544Z,5.65
2023-04-10T17:04:32.949Z,5.38
2023-04-10T17:07:05.514Z,5.05
2023-04-10T17:09:34.627Z,4.65
2023-04-10T17:12:03.417Z,4.40
2023-04-10T17:14:33.224Z,5.68
2023-04-10T17:17:19.016Z,4.00
2023-04-10T17:19:48.555Z,4.20
2023-04-10T17:22:21.174Z,4.50
2023-04-10T17:24:50.416Z,5.00
2023-04-10T17:27:19.367Z,4.35
2023-04-10T17:29:52.164Z,5.07
2023-04-10T17:32:26.301Z,6.40
2023-04-10T17:34:56.935Z,4.80
2023-04-10T17:37:26.250Z,4.07
2023-04-10T17:39:54.893Z,4.80
2023-04-10T17:42:27.297Z,7.60
2023-04-10T17:44:56.237Z,6.05
2023-04-10T17:47:27.017Z,5.10
2023-04-10T17:50:00.263Z,5.00
2023-04-10T17:52:28.966Z,5.18
2023-04-10T17:54:58.349Z,6.15
2023-04-10T17:57:28.471Z,5.90
2023-04-10T18:00:02.918Z,5.68
2023-04-10T18:02:39.020Z,6.22
2023-04-10T18:05:09.372Z,6.15
2023-04-10T18:07:40.246Z,5.88
2023-04-10T18:10:12.895Z,5.97
2023-04-10T18:12:43.964Z,5.82
2023-04-10T18:15:20.188Z,5.72
2023-04-10T18:17:54.761Z,5.45
2023-04-10T18:20:25.472Z,6.50
2023-04-10T18:22:59.186Z,6.68
2023-04-10T18:25:33.867Z,8.93
2023-04-10T18:28:14.889Z,6.88
2023-04-10T18:30:48.499Z,6.43
2023-04-10T18:33:24.734Z,7.05
2023-04-10T18:36:02.232Z,6.95
2023-04-10T18:38:35.331Z,7.20
2023-04-10T18:41:06.153Z,6.57
2023-04-10T18:43:41.447Z,6.20
2023-04-10T18:46:15.880Z,6.80
2023-04-10T18:48:54.047Z,7.05
2023-04-10T18:51:24.965Z,5.97
2023-04-10T18:53:59.171Z,5.93
2023-04-10T18:56:29.417Z,6.07
2023-04-10T18:59:00.640Z,5.85
2023-04-10T19:01:30.985Z,6.40
2023-04-10T19:04:02.673Z,6.28
2023-04-10T19:06:35.696Z,6.03
2023-04-10T19:09:05.593Z,5.85
2023-04-10T19:11:35.736Z,5.97
2023-04-10T19:14:08.120Z,6.15
2023-04-10T19:16:41.487Z,5.68
2023-04-10T19:19:14.863Z,6.25
2023-04-10T19:21:50.224Z,6.55
2023-04-10T19:24:23.120Z,5.88
2023-04-10T19:26:56.472Z,5.20
2023-04-10T19:29:26.234Z,5.57
2023-04-10T19:31:57.850Z,6.30
2023-04-10T19:34:30.403Z,5.45
2023-04-10T19:37:22.748Z,5.25
2023-04-10T19:39:54.217Z,5.18
2023-04-10T19:42:24.571Z,5.25
2023-04-10T19:44:57.840Z,6.35
2023-04-10T19:47:33.857Z,5.30
2023-04-10T19:50:06.684Z,6.13
2023-04-10T19:52:41.331Z,5.72
2023-04-10T19:55:12.246Z,5.47
2023-04-10T19:57:49.446Z,6.38
2023-04-10T20:00:23.651Z,6.00
2023-04-10T20:03:05.885Z,6.28
2023-04-10T20:05:46.916Z,6.90
2023-04-10T20:08:18.063Z,6.93
2023-04-10T20:10:47.693Z,5.75
2023-04-10T20:13:26.279Z,6.35
2023-04-10T20:15:59.929Z,6.60
2023-04-10T20:18:32.486Z,6.88
2023-04-10T20:21:14.400Z,6.53
2023-04-10T20:23:43.353Z,6.63
2023-04-10T20:26:16.629Z,6.38
2023-04-10T20:28:45.199Z,6.40
2023-04-10T20:31:15.775Z,6.25
2023-04-10T20:33:45.025Z,6.50
2023-04-10T20:36:15.466Z,6.35
2023-04-10T20:38:47.157Z,6.13
2023-04-10T20:41:16.845Z,6.47
2023-04-10T20:43:45.614Z,7.13
2023-04-10T20:46:14.129Z,6.20
2023-04-10T20:48:43.909Z,6.30
2023-04-10T20:51:14.529Z,6.00
2023-04-10T20:53:46.714Z,5.43
2023-04-10T20:56:16.223Z,6.00
2023-04-10T20:58:46.051Z,5.40
2023-04-10T21:01:15.373Z,5.32
2023-04-10T21:03:50.916Z,5.97
2023-04-10T21:06:19.866Z,5.32
2023-04-10T21:08:50.511Z,5.32
2023-04-10T21:11:20.600Z,5.28
2023-04-10T21:13:49.705Z,5.10
2023-04-10T21:16:19.646Z,4.68
2023-04-10T21:18:48.649Z,5.05
2023-04-10T21:21:17.910Z,4.72
2023-04-10T21:23:47.297Z,5.45
2023-04-10T21:26:19.579Z,5.30
2023-04-10T21:28:48.348Z,5.63
2023-04-10T21:31:17.145Z,5.93
2023-04-10T21:33:46.379Z,6.45
2023-04-10T21:36:17.705Z,6.13
2023-04-10T21:38:46.408Z,4.53
2023-04-10T21:41:15.670Z,6.60
2023-04-10T21:43:46.394Z,5.82
2023-04-10T21:46:16.183Z,6.25
2023-04-10T21:48:45.012Z,4.95
2023-04-10T21:51:13.812Z,5.55
2023-04-10T21:53:42.618Z,6.20
2023-04-10T21:56:12.580Z,5.90
2023-04-10T21:58:41.297Z,6.07
2023-04-10T22:01:14.519Z,5.60
2023-04-10T22:03:43.720Z,5.50
2023-04-10T22:06:13.090Z,3.30
2023-04-10T22:08:42.485Z,3.40
2023-04-10T22:11:15.696Z,2.88
2023-04-10T22:13:44.784Z,3.05
2023-04-10T22:16:15.805Z,2.88
2023-04-10T22:18:44.804Z,2.72
2023-04-10T22:21:14.199Z,2.90
2023-04-10T22:23:45.399Z,2.75
2023-04-10T22:26:15.455Z,2.92
2023-04-10T22:28:44.858Z,2.67
2023-04-10T22:31:20.038Z,2.03
2023-04-10T22:33:49.415Z,2.53
2023-04-10T22:36:18.204Z,1.85
2023-04-10T22:38:49.151Z,1.80
2023-04-10T22:41:17.594Z,2.20
2023-04-10T22:43:50.168Z,2.15
2023-04-10T22:46:21.846Z,2.53
2023-04-10T22:48:50.628Z,3.17
2023-04-10T22:51:19.702Z,2.85
2023-04-10T22:53:49.410Z,1.70
2023-04-10T22:56:19.447Z,1.80
2023-04-10T22:58:48.574Z,2.13
2023-04-10T23:01:17.250Z,1.63
2023-04-10T23:03:52.873Z,2.20
2023-04-10T23:06:22.091Z,2.38
2023-04-10T23:08:51.569Z,1.70
2023-04-10T23:11:20.545Z,1.92
2023-04-10T23:13:50.555Z,2.13
2023-04-10T23:16:20.212Z,2.45
2023-04-10T23:18:54.095Z,1.98
2023-04-10T23:21:26.613Z,2.40
2023-04-10T23:23:56.623Z,2.25
2023-04-10T23:26:26.489Z,2.50
2023-04-10T23:28:55.514Z,2.28
2023-04-10T23:31:24.425Z,2.40
2023-04-10T23:33:54.686Z,2.22
2023-04-10T23:36:28.374Z,2.70
2023-04-10T23:38:57.920Z,2.92
2023-04-10T23:41:27.765Z,2.80
2023-04-10T23:43:58.957Z,2.65
2023-04-10T23:46:28.075Z,2.83
2023-04-10T23:48:59.804Z,2.63
2023-04-10T23:51:32.001Z,3.53
2023-04-10T23:54:00.879Z,2.95
2023-04-10T23:56:31.845Z,3.00
2023-04-10T23:59:01.856Z,3.30
